Nous retrouver

Il est très fortement conseillé de nous appeler avant de venir sur le terrain, nous pouvons être en mission ou en vol!

 

La carte ci-dessous est interactive, cherchez vos itinéraires, déplacez la pour vous retrouver.

News

Votre panier

Le panier est vide

Météo Charleroi

METAR
EBCI 301320Z 02005KT 330V080 9999 BKN046 07/M04 Q1029 NOSIG =
EBCI 301115Z 3012/3118 03008KT 9999 SCT045 PROB30 TEMPO 3020/3024 BKN014 PROB40 TEMPO 3100/3108 BKN006
TAF
EBCI 301115Z 3012/3118 03008KT 9999 SCT045 PROB30 TEMPO 3020/3024 BKN014 PROB40 TEMPO 3100/3108 BKN006 =
Lever / Coucher : 05:21 / 18:13 UTC (Buzet 2020-03-30)